Time;durP1;ratioP1;P1;durP2;ratioP2;P2;SDS_P1;SDS_P2;PMS_P1;PMS_P2;Temp;Humidity;BMP_temperature;BMP_pressure;BME280_temperature;BME280_humidity;BME280_pressure;Samples;Min_cycle;Max_cycle;Signal;HPM_P1;HPM_P2
2021/05/09 00:00:17;;;;;;;6.35;4.65;;;;;;;;;;5054248;28;20182;-67
2021/05/09 00:02:42;;;;;;;6.13;4.22;;;;;;;;;;5056353;28;20207;-68
2021/05/09 00:05:08;;;;;;;6.30;4.55;;;;;;;;;;5058620;28;20200;-70
2021/05/09 00:07:33;;;;;;;4.22;3.65;;;;;;;;;;5066232;28;20168;-69
2021/05/09 00:09:58;;;;;;;5.22;4.55;;;;;;;;;;5052220;28;20235;-68
2021/05/09 00:12:24;;;;;;;5.72;5.18;;;;;;;;;;5054819;28;20224;-69
2021/05/09 00:14:49;;;;;;;4.55;4.03;;;;;;;;;;5054533;28;20223;-68
2021/05/09 00:17:14;;;;;;;8.65;4.40;;;;;;;;;;5057877;28;20170;-69
2021/05/09 00:19:39;;;;;;;5.53;4.33;;;;;;;;;;5059766;28;20170;-68
2021/05/09 00:22:04;;;;;;;7.18;4.63;;;;;;;;;;5066555;28;20276;-69
2021/05/09 00:24:29;;;;;;;7.35;4.10;;;;;;;;;;5064562;28;20173;-68
2021/05/09 00:26:55;;;;;;;7.17;4.40;;;;;;;;;;5061230;28;20314;-69
2021/05/09 00:29:20;;;;;;;6.13;4.50;;;;;;;;;;5053991;28;20578;-68
2021/05/09 00:31:45;;;;;;;7.35;4.75;;;;;;;;;;5060711;28;20189;-69
2021/05/09 00:34:10;;;;;;;4.65;3.88;;;;;;;;;;5063479;28;20181;-69
2021/05/09 00:36:35;;;;;;;5.57;4.17;;;;;;;;;;5056538;28;20193;-71
2021/05/09 00:39:01;;;;;;;5.03;4.07;;;;;;;;;;5058901;28;20178;-68
2021/05/09 00:41:26;;;;;;;6.40;4.67;;;;;;;;;;5066139;28;20200;-68
2021/05/09 00:43:51;;;;;;;6.32;4.38;;;;;;;;;;5066967;28;20185;-69
2021/05/09 00:46:16;;;;;;;6.17;5.10;;;;;;;;;;5068696;28;20259;-69
2021/05/09 00:48:41;;;;;;;6.40;5.20;;;;;;;;;;5062811;28;20209;-68
2021/05/09 00:51:06;;;;;;;8.53;4.83;;;;;;;;;;5060636;28;20178;-70
2021/05/09 00:53:33;;;;;;;7.20;4.63;;;;;;;;;;5057481;28;20165;-70
2021/05/09 00:56:01;;;;;;;6.43;4.57;;;;;;;;;;5058962;28;20271;-69
2021/05/09 00:58:27;;;;;;;5.95;4.50;;;;;;;;;;5062091;28;20699;-69
2021/05/09 01:00:52;;;;;;;9.00;5.60;;;;;;;;;;5064138;28;20565;-69
2021/05/09 01:03:20;;;;;;;6.13;4.57;;;;;;;;;;5049820;28;20215;-68
2021/05/09 01:05:46;;;;;;;7.67;4.63;;;;;;;;;;5058818;28;20202;-69
2021/05/09 01:08:11;;;;;;;6.37;5.37;;;;;;;;;;5062224;28;20235;-69
2021/05/09 01:10:36;;;;;;;5.23;4.43;;;;;;;;;;5064020;28;20182;-68
2021/05/09 01:13:01;;;;;;;6.28;4.28;;;;;;;;;;5059001;28;20288;-69
2021/05/09 01:15:27;;;;;;;8.10;4.30;;;;;;;;;;5062458;28;20165;-69
2021/05/09 01:17:52;;;;;;;7.05;4.78;;;;;;;;;;5068860;28;20178;-69
2021/05/09 01:20:17;;;;;;;6.20;4.80;;;;;;;;;;5069399;28;20642;-69
2021/05/09 01:22:43;;;;;;;7.03;4.43;;;;;;;;;;5068105;28;20194;-69
2021/05/09 01:25:09;;;;;;;4.97;4.47;;;;;;;;;;5055869;28;20511;-70
2021/05/09 01:27:35;;;;;;;6.72;4.20;;;;;;;;;;5067534;28;20205;-70
2021/05/09 01:30:00;;;;;;;6.43;4.50;;;;;;;;;;5068885;28;20177;-69
2021/05/09 01:32:26;;;;;;;5.33;3.67;;;;;;;;;;5055017;28;20327;-68
2021/05/09 01:34:51;;;;;;;6.13;4.70;;;;;;;;;;5052054;28;20647;-69
2021/05/09 01:37:16;;;;;;;6.43;4.90;;;;;;;;;;5061035;28;20189;-69
2021/05/09 01:39:42;;;;;;;4.70;4.30;;;;;;;;;;5070539;28;20234;-69
2021/05/09 01:42:07;;;;;;;6.60;4.40;;;;;;;;;;5062405;28;20212;-68
2021/05/09 01:44:32;;;;;;;5.63;4.40;;;;;;;;;;5060977;28;20178;-70
2021/05/09 01:46:57;;;;;;;6.67;4.73;;;;;;;;;;5061686;28;20217;-69
2021/05/09 01:49:23;;;;;;;7.90;4.33;;;;;;;;;;5063653;28;20169;-70
2021/05/09 01:51:49;;;;;;;7.03;4.70;;;;;;;;;;5069128;28;20189;-69
2021/05/09 01:54:14;;;;;;;8.03;4.50;;;;;;;;;;5064886;28;20200;-69
2021/05/09 01:56:39;;;;;;;7.37;4.90;;;;;;;;;;5055365;28;20546;-69
2021/05/09 01:59:04;;;;;;;6.93;4.30;;;;;;;;;;5063573;28;20188;-69
2021/05/09 02:01:30;;;;;;;8.40;4.73;;;;;;;;;;5063505;28;20205;-68
2021/05/09 02:03:55;;;;;;;8.53;4.90;;;;;;;;;;5055241;28;20182;-68
2021/05/09 02:06:20;;;;;;;8.10;5.53;;;;;;;;;;5063865;28;20197;-69
2021/05/09 02:08:46;;;;;;;9.20;4.93;;;;;;;;;;5058336;28;20557;-69
2021/05/09 02:11:11;;;;;;;8.13;5.33;;;;;;;;;;5059135;28;20638;-69
2021/05/09 02:13:36;;;;;;;6.67;4.50;;;;;;;;;;5066004;28;20615;-69
2021/05/09 02:16:01;;;;;;;8.47;5.33;;;;;;;;;;5057193;28;20222;-69
2021/05/09 02:18:26;;;;;;;6.63;5.73;;;;;;;;;;5062412;28;20642;-69
2021/05/09 02:20:51;;;;;;;8.80;5.33;;;;;;;;;;5057849;28;20248;-69
2021/05/09 02:23:17;;;;;;;7.60;5.63;;;;;;;;;;5067152;28;20585;-69
2021/05/09 02:25:42;;;;;;;8.40;5.27;;;;;;;;;;5060220;28;20215;-69
2021/05/09 02:28:07;;;;;;;6.23;5.00;;;;;;;;;;5066109;28;20241;-70
2021/05/09 02:30:32;;;;;;;8.10;5.37;;;;;;;;;;5061490;28;20557;-70
2021/05/09 02:32:57;;;;;;;8.27;5.50;;;;;;;;;;5061052;28;20212;-68
2021/05/09 02:35:22;;;;;;;7.50;5.70;;;;;;;;;;5058109;28;20212;-69
2021/05/09 02:37:48;;;;;;;6.70;5.27;;;;;;;;;;5054724;28;20757;-70
2021/05/09 02:40:13;;;;;;;5.90;5.30;;;;;;;;;;5063263;28;20184;-69
2021/05/09 02:42:38;;;;;;;8.77;5.97;;;;;;;;;;5063059;28;20204;-69
2021/05/09 02:45:04;;;;;;;7.70;5.60;;;;;;;;;;5060959;28;20177;-70
2021/05/09 02:47:29;;;;;;;8.97;5.77;;;;;;;;;;5061857;28;20208;-70
2021/05/09 02:49:55;;;;;;;7.37;5.47;;;;;;;;;;5063829;28;20642;-70
2021/05/09 02:52:20;;;;;;;7.63;5.80;;;;;;;;;;5067327;28;20275;-69
2021/05/09 02:54:45;;;;;;;11.00;7.30;;;;;;;;;;5056175;28;20238;-69
2021/05/09 02:57:11;;;;;;;6.23;5.57;;;;;;;;;;5056140;28;20603;-70
2021/05/09 02:59:36;;;;;;;9.63;6.43;;;;;;;;;;5057866;28;20184;-70
2021/05/09 03:02:01;;;;;;;11.53;6.53;;;;;;;;;;5061492;28;20205;-70
2021/05/09 03:04:26;;;;;;;8.07;5.73;;;;;;;;;;5055411;28;20181;-69
2021/05/09 03:06:51;;;;;;;7.77;6.03;;;;;;;;;;5065746;28;20197;-70
2021/05/09 03:09:16;;;;;;;10.87;5.93;;;;;;;;;;5060194;28;20178;-70
2021/05/09 03:11:42;;;;;;;7.93;6.13;;;;;;;;;;5058549;28;20201;-70
2021/05/09 03:14:07;;;;;;;8.63;6.63;;;;;;;;;;5059994;28;20186;-70
2021/05/09 03:16:32;;;;;;;7.33;6.40;;;;;;;;;;5059094;28;20689;-70
2021/05/09 03:18:57;;;;;;;8.87;5.83;;;;;;;;;;5056853;28;20259;-69
2021/05/09 03:21:22;;;;;;;7.20;6.00;;;;;;;;;;5061887;28;20192;-70
2021/05/09 03:23:48;;;;;;;6.70;5.90;;;;;;;;;;5066857;28;20209;-69
2021/05/09 03:26:13;;;;;;;7.33;6.27;;;;;;;;;;5057745;28;21161;-70
2021/05/09 03:28:39;;;;;;;6.60;5.90;;;;;;;;;;5062696;28;20557;-70
2021/05/09 03:31:04;;;;;;;10.80;5.87;;;;;;;;;;5059071;28;20173;-70
2021/05/09 03:33:29;;;;;;;8.60;6.17;;;;;;;;;;5059968;28;20238;-69
2021/05/09 03:35:55;;;;;;;10.37;6.53;;;;;;;;;;5065423;28;20654;-70
2021/05/09 03:38:20;;;;;;;10.53;6.33;;;;;;;;;;5060890;28;20181;-70
2021/05/09 03:40:45;;;;;;;8.03;6.43;;;;;;;;;;5055873;28;20655;-69
2021/05/09 03:43:10;;;;;;;7.97;6.30;;;;;;;;;;5065283;28;20280;-70
2021/05/09 03:45:35;;;;;;;8.87;5.83;;;;;;;;;;5063842;28;20200;-70
2021/05/09 03:48:00;;;;;;;6.20;5.43;;;;;;;;;;5067906;28;20255;-70
2021/05/09 03:50:26;;;;;;;9.40;6.13;;;;;;;;;;5053666;28;20283;-70
2021/05/09 03:52:51;;;;;;;7.50;5.80;;;;;;;;;;5062094;28;20184;-70
2021/05/09 03:55:16;;;;;;;9.70;6.00;;;;;;;;;;5063540;28;20182;-70
2021/05/09 03:57:42;;;;;;;8.20;5.50;;;;;;;;;;5060777;28;20177;-69
2021/05/09 04:00:07;;;;;;;9.70;6.40;;;;;;;;;;5060723;28;20655;-69
2021/05/09 04:02:32;;;;;;;6.97;5.73;;;;;;;;;;5063280;28;20257;-70
2021/05/09 04:04:57;;;;;;;8.47;5.63;;;;;;;;;;5057394;28;20607;-70
2021/05/09 04:07:23;;;;;;;8.43;6.20;;;;;;;;;;5072625;28;20306;-69
2021/05/09 04:09:48;;;;;;;7.83;5.60;;;;;;;;;;5064381;28;20173;-70
2021/05/09 04:12:13;;;;;;;6.30;5.57;;;;;;;;;;5057189;28;20209;-70
2021/05/09 04:14:38;;;;;;;9.83;5.77;;;;;;;;;;5064770;28;20181;-70
2021/05/09 04:17:04;;;;;;;7.57;5.40;;;;;;;;;;5060115;28;20181;-70
2021/05/09 04:19:29;;;;;;;6.30;5.60;;;;;;;;;;5064073;28;20201;-70
2021/05/09 04:21:54;;;;;;;8.97;5.43;;;;;;;;;;5066448;28;20682;-70
2021/05/09 04:24:20;;;;;;;9.97;6.23;;;;;;;;;;5063983;28;20177;-70
2021/05/09 04:26:45;;;;;;;7.20;5.57;;;;;;;;;;5063091;28;20651;-70
2021/05/09 04:29:10;;;;;;;7.37;5.33;;;;;;;;;;5055897;28;20269;-69
2021/05/09 04:31:36;;;;;;;6.90;5.20;;;;;;;;;;5068244;28;20203;-70
2021/05/09 04:34:01;;;;;;;7.30;6.10;;;;;;;;;;5061476;28;20182;-70
2021/05/09 04:36:26;;;;;;;7.33;5.10;;;;;;;;;;5065912;28;20193;-69
2021/05/09 04:38:51;;;;;;;8.40;5.10;;;;;;;;;;5062964;28;20318;-70
2021/05/09 04:41:16;;;;;;;8.27;5.50;;;;;;;;;;5068808;28;20296;-70
2021/05/09 04:43:42;;;;;;;7.17;5.53;;;;;;;;;;5068543;28;20173;-70
2021/05/09 04:46:08;;;;;;;8.20;4.63;;;;;;;;;;5066257;28;20208;-72
2021/05/09 04:48:33;;;;;;;7.97;4.70;;;;;;;;;;5067323;28;20204;-69
2021/05/09 04:50:58;;;;;;;7.67;5.00;;;;;;;;;;5065188;28;20196;-68
2021/05/09 04:53:24;;;;;;;6.80;5.17;;;;;;;;;;5061401;28;20177;-70
2021/05/09 04:55:50;;;;;;;7.90;4.70;;;;;;;;;;5070105;28;20181;-69
2021/05/09 04:58:15;;;;;;;5.43;4.70;;;;;;;;;;5056575;28;20235;-70
2021/05/09 05:00:40;;;;;;;9.50;5.10;;;;;;;;;;5069346;28;20181;-70
2021/05/09 05:03:05;;;;;;;6.05;4.78;;;;;;;;;;5060216;28;20224;-69
2021/05/09 05:05:30;;;;;;;5.63;4.60;;;;;;;;;;5060439;28;20589;-69
2021/05/09 05:07:56;;;;;;;5.10;4.50;;;;;;;;;;5067575;28;20173;-70
2021/05/09 05:10:21;;;;;;;7.80;5.10;;;;;;;;;;5058233;28;20559;-69
2021/05/09 05:12:46;;;;;;;6.23;4.50;;;;;;;;;;5059467;28;20189;-70
2021/05/09 05:15:12;;;;;;;7.03;5.27;;;;;;;;;;5066786;28;20187;-70
2021/05/09 05:17:37;;;;;;;6.77;4.87;;;;;;;;;;5065888;28;20175;-70
2021/05/09 05:20:02;;;;;;;7.37;4.60;;;;;;;;;;5061918;28;20618;-70
2021/05/09 05:22:27;;;;;;;6.47;4.57;;;;;;;;;;5067111;28;20201;-69
2021/05/09 05:24:52;;;;;;;7.63;4.63;;;;;;;;;;5054147;28;20173;-70
2021/05/09 05:27:18;;;;;;;5.88;4.47;;;;;;;;;;5061396;28;20220;-69
2021/05/09 05:29:43;;;;;;;7.40;4.63;;;;;;;;;;5070797;28;20173;-69
2021/05/09 05:32:08;;;;;;;5.97;4.60;;;;;;;;;;5056745;28;20204;-69
2021/05/09 05:34:34;;;;;;;10.40;4.75;;;;;;;;;;5063431;28;20203;-69
2021/05/09 05:36:59;;;;;;;6.07;4.53;;;;;;;;;;5064026;28;20189;-68
2021/05/09 05:39:24;;;;;;;7.38;4.20;;;;;;;;;;5065456;28;20183;-70
2021/05/09 05:41:49;;;;;;;6.97;4.43;;;;;;;;;;5059094;28;20796;-70
2021/05/09 05:44:14;;;;;;;6.18;4.55;;;;;;;;;;5064948;28;20607;-69
2021/05/09 05:46:39;;;;;;;5.72;4.47;;;;;;;;;;5069370;28;20704;-69
2021/05/09 05:49:05;;;;;;;7.55;4.85;;;;;;;;;;5067696;28;20208;-70
2021/05/09 05:51:30;;;;;;;7.15;4.30;;;;;;;;;;5069403;28;20197;-70
2021/05/09 05:53:58;;;;;;;6.40;4.18;;;;;;;;;;5065322;28;20226;-70
2021/05/09 05:56:24;;;;;;;7.38;4.55;;;;;;;;;;5059525;28;20181;-70
2021/05/09 05:58:49;;;;;;;6.35;4.55;;;;;;;;;;5068209;28;20168;-70
2021/05/09 06:01:15;;;;;;;6.57;4.25;;;;;;;;;;5067416;28;20780;-69
2021/05/09 06:03:40;;;;;;;4.07;3.65;;;;;;;;;;5064754;28;20185;-69
2021/05/09 06:06:05;;;;;;;9.45;4.82;;;;;;;;;;5058251;28;20577;-71
2021/05/09 06:08:30;;;;;;;7.85;4.75;;;;;;;;;;5062952;28;20201;-68
2021/05/09 06:10:55;;;;;;;5.72;4.15;;;;;;;;;;5057973;28;20216;-68
2021/05/09 06:13:22;;;;;;;5.65;4.20;;;;;;;;;;5062668;28;20201;-70
2021/05/09 06:15:48;;;;;;;4.72;3.70;;;;;;;;;;5059678;28;20208;-70
2021/05/09 06:18:13;;;;;;;4.22;3.80;;;;;;;;;;5064990;28;20217;-70
2021/05/09 06:20:38;;;;;;;4.47;3.67;;;;;;;;;;5064820;28;20272;-69
2021/05/09 06:23:03;;;;;;;4.93;3.80;;;;;;;;;;5062279;28;20205;-70
2021/05/09 06:25:29;;;;;;;4.32;3.63;;;;;;;;;;5064177;28;20192;-69
2021/05/09 06:27:54;;;;;;;6.55;4.57;;;;;;;;;;5052278;28;20205;-69
2021/05/09 06:30:20;;;;;;;4.97;3.90;;;;;;;;;;5062295;28;20165;-69
2021/05/09 06:32:45;;;;;;;5.55;3.90;;;;;;;;;;5061246;28;20203;-69
2021/05/09 06:35:10;;;;;;;5.95;3.97;;;;;;;;;;5057822;28;20177;-69
2021/05/09 06:37:36;;;;;;;5.88;4.00;;;;;;;;;;5064612;28;20193;-69
2021/05/09 06:40:01;;;;;;;9.70;4.15;;;;;;;;;;5063552;28;20205;-69
2021/05/09 06:42:26;;;;;;;5.47;3.97;;;;;;;;;;5059115;28;20227;-70
2021/05/09 06:45:00;;;;;;;4.95;4.03;;;;;;;;;;5062390;28;20195;-68
2021/05/09 06:47:25;;;;;;;6.78;3.67;;;;;;;;;;5050404;28;20265;-68
2021/05/09 06:49:50;;;;;;;5.37;3.40;;;;;;;;;;5053838;28;20180;-69
2021/05/09 06:52:15;;;;;;;5.90;3.60;;;;;;;;;;5059079;28;20563;-69
2021/05/09 06:54:40;;;;;;;5.43;3.70;;;;;;;;;;5049193;28;20418;-69
2021/05/09 06:57:06;;;;;;;4.78;3.17;;;;;;;;;;5052665;28;20265;-69
2021/05/09 06:59:31;;;;;;;5.45;3.22;;;;;;;;;;5052153;28;20184;-69
2021/05/09 07:01:57;;;;;;;3.85;3.55;;;;;;;;;;5050058;28;20196;-68
2021/05/09 07:04:22;;;;;;;4.78;3.25;;;;;;;;;;5053318;28;20555;-69
2021/05/09 07:06:47;;;;;;;4.63;3.40;;;;;;;;;;5049647;28;20220;-69
2021/05/09 07:09:12;;;;;;;5.20;3.35;;;;;;;;;;5053520;28;20433;-70
2021/05/09 07:11:38;;;;;;;4.13;2.58;;;;;;;;;;5050954;28;20200;-69
2021/05/09 07:14:04;;;;;;;3.88;3.22;;;;;;;;;;5055615;28;20212;-68
2021/05/09 07:16:29;;;;;;;4.53;3.00;;;;;;;;;;5057822;28;20585;-68
2021/05/09 07:18:55;;;;;;;4.22;2.85;;;;;;;;;;5056157;28;20224;-68
2021/05/09 07:21:29;;;;;;;5.20;3.17;;;;;;;;;;5053148;28;20196;-69
2021/05/09 07:23:54;;;;;;;2.85;2.38;;;;;;;;;;5050923;28;20229;-68
2021/05/09 07:26:19;;;;;;;3.03;2.72;;;;;;;;;;5051936;28;20208;-69
2021/05/09 07:28:46;;;;;;;4.72;2.70;;;;;;;;;;5056238;28;20264;-68
2021/05/09 07:31:11;;;;;;;7.10;2.58;;;;;;;;;;5057743;28;20183;-69
2021/05/09 07:33:37;;;;;;;5.82;2.40;;;;;;;;;;5058694;28;20260;-68
2021/05/09 07:36:02;;;;;;;4.72;2.45;;;;;;;;;;5052523;28;20194;-69
2021/05/09 07:38:27;;;;;;;2.55;2.25;;;;;;;;;;5055963;28;20217;-69
2021/05/09 07:40:52;;;;;;;4.30;2.43;;;;;;;;;;5067047;28;20588;-69
2021/05/09 07:43:18;;;;;;;2.93;2.10;;;;;;;;;;5065531;28;20475;-69
2021/05/09 07:45:44;;;;;;;3.17;2.03;;;;;;;;;;5061409;28;20535;-69
2021/05/09 07:48:10;;;;;;;3.80;2.72;;;;;;;;;;5062797;28;20605;-68
2021/05/09 07:50:35;;;;;;;2.92;1.90;;;;;;;;;;5059110;28;20182;-69
2021/05/09 07:53:00;;;;;;;4.63;2.55;;;;;;;;;;5052394;28;22065;-69
2021/05/09 07:55:26;;;;;;;4.50;2.63;;;;;;;;;;5055443;28;20177;-68
2021/05/09 07:57:51;;;;;;;2.20;2.00;;;;;;;;;;5052978;28;20187;-70
2021/05/09 08:00:17;;;;;;;4.22;2.10;;;;;;;;;;5056023;28;20538;-69
2021/05/09 08:02:45;;;;;;;4.38;2.47;;;;;;;;;;5056904;28;20265;-70
2021/05/09 08:05:11;;;;;;;2.67;1.98;;;;;;;;;;5063373;28;20186;-70
2021/05/09 08:07:53;;;;;;;3.85;1.75;;;;;;;;;;5057765;28;20182;-70
2021/05/09 08:10:18;;;;;;;4.22;2.55;;;;;;;;;;5054308;28;20216;-70
2021/05/09 08:12:43;;;;;;;2.28;1.80;;;;;;;;;;5053964;28;20686;-69
2021/05/09 08:15:09;;;;;;;1.90;1.70;;;;;;;;;;5053453;28;20650;-70
2021/05/09 08:17:34;;;;;;;2.45;2.03;;;;;;;;;;5055628;28;20230;-69
2021/05/09 08:19:59;;;;;;;2.88;2.17;;;;;;;;;;5057072;28;20209;-69
2021/05/09 08:22:26;;;;;;;5.47;2.67;;;;;;;;;;5053631;28;20610;-70
2021/05/09 08:24:51;;;;;;;4.05;1.98;;;;;;;;;;5051559;28;20910;-69
2021/05/09 08:27:16;;;;;;;2.88;2.03;;;;;;;;;;5062036;28;20288;-69
2021/05/09 08:29:42;;;;;;;2.63;2.43;;;;;;;;;;5059268;28;20184;-69
2021/05/09 08:32:07;;;;;;;2.78;2.10;;;;;;;;;;5063357;28;20801;-69
2021/05/09 08:34:34;;;;;;;4.30;2.73;;;;;;;;;;5062693;28;20172;-69
2021/05/09 08:37:00;;;;;;;3.80;2.42;;;;;;;;;;5052235;28;20441;-68
2021/05/09 08:39:25;;;;;;;6.93;2.67;;;;;;;;;;5052651;28;20192;-69
2021/05/09 08:41:50;;;;;;;3.63;2.77;;;;;;;;;;5054902;28;20205;-70
2021/05/09 08:44:15;;;;;;;3.38;2.40;;;;;;;;;;5053692;28;20429;-70
2021/05/09 08:46:41;;;;;;;2.92;2.63;;;;;;;;;;5054820;28;20201;-68
2021/05/09 08:49:07;;;;;;;5.07;2.47;;;;;;;;;;5052642;28;20178;-69
2021/05/09 08:51:32;;;;;;;2.83;2.50;;;;;;;;;;5054381;28;20650;-70
2021/05/09 08:53:57;;;;;;;3.77;2.87;;;;;;;;;;5052000;28;20223;-70
2021/05/09 08:56:25;;;;;;;4.57;2.72;;;;;;;;;;5059429;28;20457;-69
2021/05/09 08:58:50;;;;;;;3.22;2.80;;;;;;;;;;5054489;28;20268;-70
2021/05/09 09:01:15;;;;;;;3.35;2.80;;;;;;;;;;5052194;28;20235;-71
2021/05/09 09:03:41;;;;;;;3.70;3.28;;;;;;;;;;5053135;28;20186;-70
2021/05/09 09:06:10;;;;;;;4.40;3.87;;;;;;;;;;5058597;28;20224;-70
2021/05/09 09:08:51;;;;;;;3.80;3.40;;;;;;;;;;5055315;28;20425;-69
2021/05/09 09:11:26;;;;;;;3.85;3.05;;;;;;;;;;5053541;28;20221;-67
2021/05/09 09:14:08;;;;;;;4.45;3.65;;;;;;;;;;5052186;28;20176;-69
2021/05/09 09:16:34;;;;;;;4.32;3.25;;;;;;;;;;5056180;28;20181;-69
2021/05/09 09:19:05;;;;;;;4.25;2.92;;;;;;;;;;5058034;28;20665;-69
2021/05/09 09:21:31;;;;;;;4.38;3.97;;;;;;;;;;5054814;28;20224;-70
2021/05/09 09:23:57;;;;;;;3.65;3.28;;;;;;;;;;5052687;28;20212;-70
2021/05/09 09:26:23;;;;;;;3.53;3.15;;;;;;;;;;5054739;28;20227;-70
2021/05/09 09:28:48;;;;;;;4.53;3.08;;;;;;;;;;5052245;28;20631;-69
2021/05/09 09:31:13;;;;;;;4.87;3.30;;;;;;;;;;5054893;28;20172;-70
2021/05/09 09:33:48;;;;;;;3.90;3.10;;;;;;;;;;5052233;28;21084;-70
2021/05/09 09:36:18;;;;;;;4.03;3.17;;;;;;;;;;5050923;28;20428;-69
2021/05/09 09:38:48;;;;;;;3.88;3.20;;;;;;;;;;5051175;28;20178;-70
2021/05/09 09:41:18;;;;;;;3.90;3.25;;;;;;;;;;5055509;28;20182;-69
2021/05/09 09:43:59;;;;;;;3.38;3.08;;;;;;;;;;5066657;28;20213;-70
2021/05/09 09:46:25;;;;;;;4.53;3.72;;;;;;;;;;5058135;28;20758;-70
2021/05/09 09:48:51;;;;;;;3.30;2.72;;;;;;;;;;5060358;28;20274;-70
2021/05/09 09:51:16;;;;;;;4.27;3.20;;;;;;;;;;5051883;28;20670;-70
2021/05/09 09:53:44;;;;;;;8.50;3.20;;;;;;;;;;5054162;28;20431;-70
2021/05/09 09:56:13;;;;;;;4.90;2.90;;;;;;;;;;5052908;28;20752;-70
2021/05/09 09:58:41;;;;;;;2.47;2.28;;;;;;;;;;5052706;28;20296;-70
2021/05/09 10:01:06;;;;;;;3.65;2.60;;;;;;;;;;5056211;28;20690;-70
2021/05/09 10:03:31;;;;;;;4.88;2.70;;;;;;;;;;5049707;28;20186;-70
2021/05/09 10:05:58;;;;;;;3.55;2.90;;;;;;;;;;5050078;28;20564;-71
2021/05/09 10:08:23;;;;;;;4.72;2.78;;;;;;;;;;5051996;28;20169;-70
2021/05/09 10:10:49;;;;;;;3.83;2.33;;;;;;;;;;5054750;28;20181;-70
2021/05/09 10:13:14;;;;;;;4.53;2.75;;;;;;;;;;5051497;28;20714;-69
2021/05/09 10:15:39;;;;;;;4.22;2.53;;;;;;;;;;5050366;28;20193;-69
2021/05/09 10:18:06;;;;;;;2.80;2.50;;;;;;;;;;5055374;28;20276;-70
2021/05/09 10:20:31;;;;;;;4.05;2.25;;;;;;;;;;5051057;28;20209;-70
2021/05/09 10:23:06;;;;;;;3.47;2.03;;;;;;;;;;5048883;28;20316;-70
2021/05/09 10:25:41;;;;;;;3.85;2.28;;;;;;;;;;5059867;28;20291;-70
2021/05/09 10:28:10;;;;;;;2.85;1.95;;;;;;;;;;5063520;28;20226;-70
2021/05/09 10:30:47;;;;;;;4.10;2.03;;;;;;;;;;5052623;28;20209;-71
2021/05/09 10:33:31;;;;;;;2.33;1.90;;;;;;;;;;5054083;28;20201;-70
2021/05/09 10:35:56;;;;;;;3.28;1.88;;;;;;;;;;5059651;28;20662;-70
2021/05/09 10:38:21;;;;;;;5.37;1.80;;;;;;;;;;5052097;28;20206;-68
2021/05/09 10:40:47;;;;;;;3.45;1.98;;;;;;;;;;5049939;28;20521;-70
2021/05/09 10:43:14;;;;;;;3.13;1.93;;;;;;;;;;5051943;28;20243;-70
2021/05/09 10:45:39;;;;;;;7.20;2.08;;;;;;;;;;5060265;28;20498;-70
2021/05/09 10:48:24;;;;;;;2.13;1.70;;;;;;;;;;5066917;28;20653;-70
2021/05/09 10:51:02;;;;;;;2.58;1.80;;;;;;;;;;5052843;28;20172;-70
2021/05/09 10:53:30;;;;;;;5.20;2.13;;;;;;;;;;5061744;28;20179;-69
2021/05/09 10:55:55;;;;;;;4.72;1.90;;;;;;;;;;5056881;28;20269;-70
2021/05/09 10:58:40;;;;;;;3.15;1.67;;;;;;;;;;5052467;28;20675;-71
2021/05/09 11:01:09;;;;;;;3.05;1.98;;;;;;;;;;5057671;28;20193;-71
2021/05/09 11:03:34;;;;;;;2.80;1.98;;;;;;;;;;5057617;28;20310;-70
2021/05/09 11:06:06;;;;;;;2.25;1.92;;;;;;;;;;5067401;28;20287;-69
2021/05/09 11:08:48;;;;;;;3.17;2.00;;;;;;;;;;5057316;28;20185;-68
2021/05/09 11:11:18;;;;;;;2.63;2.42;;;;;;;;;;5059875;28;20177;-68
2021/05/09 11:13:59;;;;;;;6.32;2.90;;;;;;;;;;5065871;28;20302;-69
2021/05/09 11:16:29;;;;;;;4.80;2.90;;;;;;;;;;5061463;28;20173;-69
2021/05/09 11:18:57;;;;;;;3.90;2.85;;;;;;;;;;5067623;28;20177;-69
2021/05/09 11:21:23;;;;;;;3.88;2.55;;;;;;;;;;5065727;28;20228;-69
2021/05/09 11:23:49;;;;;;;3.03;2.60;;;;;;;;;;5059741;28;20196;-67
2021/05/09 11:26:21;;;;;;;2.90;2.45;;;;;;;;;;5065982;28;20193;-69
2021/05/09 11:29:03;;;;;;;3.13;2.50;;;;;;;;;;5056522;28;20339;-69
2021/05/09 11:31:29;;;;;;;6.75;2.75;;;;;;;;;;5060127;28;20184;-70
2021/05/09 11:33:54;;;;;;;5.80;2.70;;;;;;;;;;5057250;28;20200;-69
2021/05/09 11:36:39;;;;;;;3.40;2.72;;;;;;;;;;5060241;28;20185;-70
2021/05/09 11:39:11;;;;;;;4.22;2.40;;;;;;;;;;5051133;28;20219;-69
2021/05/09 11:41:48;;;;;;;3.67;2.80;;;;;;;;;;5053093;28;20205;-69
2021/05/09 11:44:13;;;;;;;3.83;2.63;;;;;;;;;;5050064;28;20185;-68
2021/05/09 11:46:38;;;;;;;5.18;3.08;;;;;;;;;;5052857;28;20566;-70
2021/05/09 11:49:14;;;;;;;5.38;2.85;;;;;;;;;;5050920;28;20223;-70
2021/05/09 11:52:05;;;;;;;2.92;2.42;;;;;;;;;;5053398;28;20603;-70
2021/05/09 11:54:32;;;;;;;10.80;3.63;;;;;;;;;;5049415;28;20591;-70
2021/05/09 11:56:58;;;;;;;7.90;3.53;;;;;;;;;;5052873;28;20252;-70
2021/05/09 11:59:30;;;;;;;4.30;3.20;;;;;;;;;;5049726;28;20239;-71
2021/05/09 12:01:55;;;;;;;5.78;3.10;;;;;;;;;;5052521;28;20197;-70
2021/05/09 12:04:20;;;;;;;4.25;2.97;;;;;;;;;;5055207;28;20275;-67
2021/05/09 12:06:46;;;;;;;5.13;3.08;;;;;;;;;;5053632;28;20201;-70
2021/05/09 12:09:11;;;;;;;5.10;2.63;;;;;;;;;;5056790;28;20188;-69
2021/05/09 12:11:39;;;;;;;4.35;2.83;;;;;;;;;;5058247;28;20569;-70
2021/05/09 12:14:05;;;;;;;6.03;3.58;;;;;;;;;;5065194;28;20185;-70
2021/05/09 12:16:40;;;;;;;5.68;3.30;;;;;;;;;;5055979;28;20190;-69
2021/05/09 12:19:06;;;;;;;5.05;3.05;;;;;;;;;;5061686;28;20182;-68
2021/05/09 12:21:31;;;;;;;3.50;2.72;;;;;;;;;;5062426;28;20602;-69
2021/05/09 12:24:04;;;;;;;3.03;2.67;;;;;;;;;;5064952;28;20658;-69
2021/05/09 12:26:29;;;;;;;6.65;2.58;;;;;;;;;;5055412;28;20457;-69
2021/05/09 12:29:13;;;;;;;5.22;3.17;;;;;;;;;;5055504;28;20178;-68
2021/05/09 12:31:38;;;;;;;4.88;2.40;;;;;;;;;;5064019;28;20184;-69
2021/05/09 12:34:04;;;;;;;5.38;2.80;;;;;;;;;;5059249;28;20694;-68
2021/05/09 12:36:29;;;;;;;2.97;2.23;;;;;;;;;;5058540;28;20197;-68
2021/05/09 12:38:56;;;;;;;4.07;2.40;;;;;;;;;;5055958;28;20781;-68
2021/05/09 12:41:21;;;;;;;4.38;2.42;;;;;;;;;;5064108;28;20203;-68
2021/05/09 12:43:53;;;;;;;2.90;2.50;;;;;;;;;;5059504;28;20181;-67
2021/05/09 12:46:42;;;;;;;4.40;2.35;;;;;;;;;;5069197;28;20462;-69
2021/05/09 12:49:17;;;;;;;5.65;2.50;;;;;;;;;;5059416;28;20178;-70
2021/05/09 12:51:55;;;;;;;5.20;2.65;;;;;;;;;;5054712;28;20232;-70
2021/05/09 12:54:39;;;;;;;2.65;2.22;;;;;;;;;;5059918;28;20694;-69
2021/05/09 12:57:22;;;;;;;3.75;2.40;;;;;;;;;;5054079;28;20184;-71
2021/05/09 12:59:48;;;;;;;4.38;2.70;;;;;;;;;;5060951;28;20514;-72
2021/05/09 13:02:14;;;;;;;3.38;3.00;;;;;;;;;;5063287;28;20209;-69
2021/05/09 13:04:44;;;;;;;2.30;2.10;;;;;;;;;;5063493;28;20169;-70
2021/05/09 13:07:12;;;;;;;3.53;2.20;;;;;;;;;;5058531;28;20202;-69
2021/05/09 13:09:37;;;;;;;3.00;2.30;;;;;;;;;;5061081;28;20181;-70
2021/05/09 13:12:03;;;;;;;4.43;2.63;;;;;;;;;;5063579;28;20189;-70
2021/05/09 13:14:58;;;;;;;2.65;2.22;;;;;;;;;;5059862;28;20425;-71
2021/05/09 13:17:23;;;;;;;4.05;2.50;;;;;;;;;;5053626;28;20189;-70
2021/05/09 13:19:52;;;;;;;3.63;2.20;;;;;;;;;;5064919;28;20708;-70
2021/05/09 13:22:17;;;;;;;5.20;2.15;;;;;;;;;;5060116;28;20559;-71
2021/05/09 13:24:46;;;;;;;4.00;2.30;;;;;;;;;;5066215;28;20189;-69
2021/05/09 13:27:11;;;;;;;2.83;2.50;;;;;;;;;;5064729;28;20422;-69
2021/05/09 13:29:36;;;;;;;4.32;2.40;;;;;;;;;;5064695;28;20530;-68
2021/05/09 13:32:01;;;;;;;3.63;2.80;;;;;;;;;;5063317;28;20230;-71
2021/05/09 13:34:27;;;;;;;4.25;3.42;;;;;;;;;;5065769;28;20487;-70
2021/05/09 13:36:52;;;;;;;3.83;2.67;;;;;;;;;;5063785;28;20215;-70
2021/05/09 13:39:18;;;;;;;3.87;2.30;;;;;;;;;;5063578;28;20468;-70
2021/05/09 13:41:44;;;;;;;3.15;2.47;;;;;;;;;;5062118;28;20429;-71
2021/05/09 13:44:09;;;;;;;3.27;2.40;;;;;;;;;;5065853;28;20185;-71
2021/05/09 13:46:34;;;;;;;3.60;2.23;;;;;;;;;;5062998;28;20793;-70
2021/05/09 13:49:00;;;;;;;2.38;2.17;;;;;;;;;;5057971;28;20177;-69
2021/05/09 13:51:26;;;;;;;3.53;1.90;;;;;;;;;;5063121;28;20597;-70
2021/05/09 13:53:51;;;;;;;1.67;1.55;;;;;;;;;;5059170;28;20271;-71
2021/05/09 13:56:16;;;;;;;2.63;1.88;;;;;;;;;;5063157;28;20698;-69
2021/05/09 13:58:43;;;;;;;2.65;1.90;;;;;;;;;;5059017;28;20213;-71
2021/05/09 14:01:08;;;;;;;3.25;2.03;;;;;;;;;;5051718;28;20604;-69
2021/05/09 14:03:33;;;;;;;2.43;2.17;;;;;;;;;;5052811;28;20182;-69
2021/05/09 14:05:58;;;;;;;4.35;1.90;;;;;;;;;;5057114;28;20217;-70
2021/05/09 14:08:24;;;;;;;2.50;1.80;;;;;;;;;;5059075;28;20190;-71
2021/05/09 14:10:49;;;;;;;4.82;2.20;;;;;;;;;;5055492;28;20232;-71
2021/05/09 14:13:15;;;;;;;4.38;2.80;;;;;;;;;;5064508;28;20200;-69
2021/05/09 14:15:41;;;;;;;4.07;2.45;;;;;;;;;;5051366;28;20251;-70
2021/05/09 14:18:07;;;;;;;3.30;2.20;;;;;;;;;;5061032;28;20210;-71
2021/05/09 14:20:32;;;;;;;6.07;2.42;;;;;;;;;;5064436;28;20715;-69
2021/05/09 14:22:57;;;;;;;4.25;2.25;;;;;;;;;;5051586;28;20202;-69
2021/05/09 14:25:23;;;;;;;6.90;2.30;;;;;;;;;;5064725;28;20211;-70
2021/05/09 14:27:49;;;;;;;2.90;2.28;;;;;;;;;;5065033;28;20177;-69
2021/05/09 14:30:14;;;;;;;3.80;2.03;;;;;;;;;;5062438;28;20177;-71
2021/05/09 14:32:39;;;;;;;4.63;2.03;;;;;;;;;;5063002;28;20189;-71
2021/05/09 14:35:05;;;;;;;4.00;1.97;;;;;;;;;;5058841;28;20900;-71
2021/05/09 14:37:30;;;;;;;3.97;2.28;;;;;;;;;;5061395;28;20207;-70
2021/05/09 14:39:55;;;;;;;2.97;1.70;;;;;;;;;;5053740;28;20181;-70